N251CV KSGR-KMSY
Flight info
| Callsign | N251CV |
|---|---|
| Flight time | 1h 6m |
| Altitude | 21000 |
| Route | MMALT MOOKI YOKEM SBI LLA OLEDD ROYUL POVVI |
| Aircraft | SF50/L-VGDW/C |
Departure
| Time | 2026-04-20 05:31 |
|---|---|
| Airport | Sugar Land Regional Airport (KSGR) |
Arrival
| Time | 2026-04-20 06:38 |
|---|---|
| Airport | Louis Armstrong New Orleans International Airport (KMSY) |
| Time | Latitude | Longitude | Altitude | Speed | Heading |
|---|---|---|---|---|---|
| 2026-04-20 05:26 | 29.61150 | -95.65552 | 77 ft | 0 kts | 355° |
| 2026-04-20 05:30 | 29.61159 | -95.65552 | 77 ft | 4 kts | 356° |
| 2026-04-20 05:30 | 29.61291 | -95.65564 | 77 ft | 41 kts | 354° |
| 2026-04-20 05:31 | 29.61819 | -95.65616 | 77 ft | 106 kts | 355° |
| 2026-04-20 05:31 | 29.62643 | -95.65702 | 411 ft | 120 kts | 353° |
| 2026-04-20 05:31 | 29.63451 | -95.65819 | 951 ft | 120 kts | 353° |
| 2026-04-20 05:31 | 29.64270 | -95.65756 | 1460 ft | 121 kts | 17° |
| 2026-04-20 05:32 | 29.64941 | -95.65207 | 1929 ft | 124 kts | 54° |
| 2026-04-20 05:32 | 29.65132 | -95.64266 | 2399 ft | 127 kts | 97° |
| 2026-04-20 05:32 | 29.64844 | -95.63335 | 2943 ft | 124 kts | 116° |
| 2026-04-20 05:32 | 29.64529 | -95.62397 | 3351 ft | 131 kts | 98° |
| 2026-04-20 05:33 | 29.64473 | -95.61146 | 3437 ft | 175 kts | 89° |
| 2026-04-20 05:33 | 29.64549 | -95.59762 | 4135 ft | 173 kts | 79° |
| 2026-04-20 05:33 | 29.64854 | -95.58505 | 4892 ft | 165 kts | 72° |
| 2026-04-20 05:33 | 29.65164 | -95.57265 | 5622 ft | 158 kts | 71° |
| 2026-04-20 05:34 | 29.65482 | -95.56072 | 6156 ft | 163 kts | 71° |
| 2026-04-20 05:34 | 29.65819 | -95.54824 | 6778 ft | 160 kts | 69° |
| 2026-04-20 05:34 | 29.66684 | -95.52490 | 7796 ft | 169 kts | 66° |
| 2026-04-20 05:35 | 29.67093 | -95.51286 | 8526 ft | 157 kts | 66° |
| 2026-04-20 05:35 | 29.67476 | -95.50131 | 9075 ft | 156 kts | 68° |
| 2026-04-20 05:35 | 29.67819 | -95.48995 | 9730 ft | 145 kts | 69° |
| 2026-04-20 05:35 | 29.68115 | -95.47910 | 10182 ft | 147 kts | 71° |
| 2026-04-20 05:36 | 29.68372 | -95.46812 | 10720 ft | 141 kts | 72° |
| 2026-04-20 05:36 | 29.68630 | -95.45695 | 11051 ft | 151 kts | 73° |
| 2026-04-20 05:36 | 29.68907 | -95.44538 | 11560 ft | 146 kts | 70° |
| 2026-04-20 05:36 | 29.69203 | -95.43433 | 11944 ft | 151 kts | 71° |
| 2026-04-20 05:37 | 29.69512 | -95.42264 | 12382 ft | 151 kts | 69° |
| 2026-04-20 05:37 | 29.69856 | -95.41138 | 12789 ft | 152 kts | 66° |
| 2026-04-20 05:37 | 29.70224 | -95.39977 | 13167 ft | 156 kts | 65° |
| 2026-04-20 05:37 | 29.70645 | -95.38858 | 13610 ft | 153 kts | 59° |
| 2026-04-20 05:38 | 29.71128 | -95.37749 | 13945 ft | 159 kts | 62° |
| 2026-04-20 05:38 | 29.71462 | -95.36526 | 14371 ft | 160 kts | 69° |
| 2026-04-20 05:38 | 29.71805 | -95.35345 | 14788 ft | 157 kts | 65° |
| 2026-04-20 05:38 | 29.72162 | -95.34171 | 15178 ft | 156 kts | 65° |
| 2026-04-20 05:39 | 29.72513 | -95.32993 | 15547 ft | 156 kts | 65° |
| 2026-04-20 05:39 | 29.72854 | -95.31821 | 15898 ft | 156 kts | 65° |
| 2026-04-20 05:39 | 29.73189 | -95.30643 | 16237 ft | 156 kts | 65° |
| 2026-04-20 05:39 | 29.73522 | -95.29449 | 16570 ft | 157 kts | 65° |
| 2026-04-20 05:40 | 29.73849 | -95.28250 | 16893 ft | 157 kts | 65° |
| 2026-04-20 05:40 | 29.74167 | -95.27056 | 17205 ft | 158 kts | 65° |
| 2026-04-20 05:40 | 29.74483 | -95.25854 | 17511 ft | 158 kts | 65° |
| 2026-04-20 05:40 | 29.74799 | -95.24625 | 17816 ft | 159 kts | 65° |
| 2026-04-20 05:41 | 29.75105 | -95.23414 | 18107 ft | 160 kts | 65° |
| 2026-04-20 05:41 | 29.75412 | -95.22178 | 18397 ft | 161 kts | 65° |
| 2026-04-20 05:41 | 29.75715 | -95.20937 | 18681 ft | 161 kts | 65° |
| 2026-04-20 05:41 | 29.76010 | -95.19706 | 18955 ft | 162 kts | 65° |
| 2026-04-20 05:42 | 29.76306 | -95.18451 | 19229 ft | 163 kts | 65° |
| 2026-04-20 05:42 | 29.76599 | -95.17188 | 19496 ft | 163 kts | 65° |
| 2026-04-20 05:42 | 29.76888 | -95.15916 | 19760 ft | 164 kts | 65° |
| 2026-04-20 05:42 | 29.77171 | -95.14654 | 20014 ft | 165 kts | 65° |
| 2026-04-20 05:43 | 29.77455 | -95.13371 | 20267 ft | 166 kts | 65° |
| 2026-04-20 05:43 | 29.77736 | -95.12080 | 20516 ft | 166 kts | 65° |
| 2026-04-20 05:43 | 29.78011 | -95.10797 | 20758 ft | 167 kts | 65° |
| 2026-04-20 05:43 | 29.78288 | -95.09489 | 20999 ft | 168 kts | 65° |
| 2026-04-20 05:44 | 29.78557 | -95.08197 | 21231 ft | 168 kts | 65° |
| 2026-04-20 05:44 | 29.78829 | -95.06878 | 21462 ft | 169 kts | 65° |
| 2026-04-20 05:44 | 29.79122 | -95.05499 | 21469 ft | 188 kts | 65° |
| 2026-04-20 05:44 | 29.79478 | -95.03961 | 21461 ft | 208 kts | 65° |
| 2026-04-20 05:45 | 29.79896 | -95.02294 | 21458 ft | 226 kts | 63° |
| 2026-04-20 05:45 | 29.80416 | -95.00514 | 21456 ft | 243 kts | 62° |
| 2026-04-20 05:45 | 29.80996 | -94.98631 | 21454 ft | 257 kts | 62° |
| 2026-04-20 05:45 | 29.81621 | -94.96636 | 21452 ft | 268 kts | 62° |
| 2026-04-20 05:46 | 29.82266 | -94.94610 | 21451 ft | 277 kts | 62° |
| 2026-04-20 05:46 | 29.82947 | -94.92493 | 21451 ft | 285 kts | 62° |
| 2026-04-20 05:46 | 29.83652 | -94.90312 | 21450 ft | 292 kts | 62° |
| 2026-04-20 05:46 | 29.84363 | -94.88123 | 21450 ft | 297 kts | 62° |
| 2026-04-20 05:47 | 29.85093 | -94.85877 | 21449 ft | 303 kts | 63° |
| 2026-04-20 05:47 | 29.85714 | -94.83538 | 21449 ft | 309 kts | 66° |
| 2026-04-20 05:47 | 29.86317 | -94.81145 | 21448 ft | 312 kts | 66° |
| 2026-04-20 05:47 | 29.86850 | -94.78693 | 21440 ft | 321 kts | 77° |
| 2026-04-20 05:48 | 29.86963 | -94.76115 | 21450 ft | 326 kts | 84° |
| 2026-04-20 05:48 | 29.86965 | -94.73513 | 21451 ft | 328 kts | 85° |
| 2026-04-20 05:48 | 29.86944 | -94.70869 | 21454 ft | 330 kts | 85° |
| 2026-04-20 05:48 | 29.86917 | -94.68244 | 21456 ft | 331 kts | 86° |
| 2026-04-20 05:49 | 29.86889 | -94.65577 | 21458 ft | 332 kts | 86° |
| 2026-04-20 05:49 | 29.86810 | -94.62915 | 21449 ft | 336 kts | 94° |
| 2026-04-20 05:49 | 29.86102 | -94.60324 | 21461 ft | 340 kts | 113° |
| 2026-04-20 05:49 | 29.84994 | -94.57911 | 21465 ft | 341 kts | 120° |
| 2026-04-20 05:50 | 29.83782 | -94.55593 | 21467 ft | 342 kts | 121° |
| 2026-04-20 05:50 | 29.82525 | -94.53270 | 21468 ft | 342 kts | 122° |
| 2026-04-20 05:50 | 29.81255 | -94.50945 | 21468 ft | 343 kts | 122° |
| 2026-04-20 05:50 | 29.79986 | -94.48629 | 21468 ft | 343 kts | 122° |
| 2026-04-20 05:51 | 29.78707 | -94.46297 | 21469 ft | 344 kts | 122° |
| 2026-04-20 05:51 | 29.77446 | -94.43999 | 21469 ft | 344 kts | 122° |
| 2026-04-20 05:51 | 29.76164 | -94.41666 | 21469 ft | 344 kts | 122° |
| 2026-04-20 05:51 | 29.74885 | -94.39336 | 21469 ft | 344 kts | 122° |
| 2026-04-20 05:52 | 29.73604 | -94.37006 | 21469 ft | 345 kts | 122° |
| 2026-04-20 05:52 | 29.72461 | -94.34623 | 21460 ft | 344 kts | 108° |
| 2026-04-20 05:52 | 29.71908 | -94.31966 | 21462 ft | 341 kts | 97° |
| 2026-04-20 05:52 | 29.71551 | -94.29266 | 21459 ft | 340 kts | 94° |
| 2026-04-20 05:53 | 29.71239 | -94.26578 | 21458 ft | 340 kts | 94° |
| 2026-04-20 05:53 | 29.70935 | -94.23885 | 21457 ft | 340 kts | 94° |
| 2026-04-20 05:53 | 29.70634 | -94.21198 | 21456 ft | 340 kts | 94° |
| 2026-04-20 05:53 | 29.70335 | -94.18533 | 21456 ft | 340 kts | 94° |
| 2026-04-20 05:54 | 29.70033 | -94.15836 | 21455 ft | 340 kts | 94° |
| 2026-04-20 05:54 | 29.69728 | -94.13126 | 21455 ft | 339 kts | 94° |
| 2026-04-20 05:54 | 29.69428 | -94.10462 | 21455 ft | 340 kts | 94° |
| 2026-04-20 05:54 | 29.69122 | -94.07748 | 21454 ft | 340 kts | 94° |
| 2026-04-20 05:55 | 29.68820 | -94.05080 | 21454 ft | 339 kts | 93° |
| 2026-04-20 05:55 | 29.68687 | -94.02380 | 21456 ft | 337 kts | 87° |
| 2026-04-20 05:55 | 29.68648 | -93.99712 | 21455 ft | 337 kts | 86° |
| 2026-04-20 05:55 | 29.68621 | -93.96986 | 21455 ft | 337 kts | 86° |
| 2026-04-20 05:56 | 29.68598 | -93.94331 | 21455 ft | 337 kts | 86° |
| 2026-04-20 05:56 | 29.68574 | -93.91632 | 21456 ft | 337 kts | 86° |
| 2026-04-20 05:56 | 29.68550 | -93.88954 | 21456 ft | 337 kts | 86° |
| 2026-04-20 05:56 | 29.68526 | -93.86261 | 21456 ft | 337 kts | 86° |
| 2026-04-20 05:57 | 29.68501 | -93.83557 | 21456 ft | 337 kts | 86° |
| 2026-04-20 05:57 | 29.68475 | -93.80851 | 21459 ft | 337 kts | 86° |
| 2026-04-20 05:57 | 29.68449 | -93.78184 | 21463 ft | 337 kts | 86° |
| 2026-04-20 05:57 | 29.68423 | -93.75490 | 21468 ft | 337 kts | 86° |
| 2026-04-20 05:58 | 29.68396 | -93.72799 | 21472 ft | 337 kts | 86° |
| 2026-04-20 05:58 | 29.68368 | -93.70096 | 21477 ft | 337 kts | 86° |
| 2026-04-20 05:58 | 29.68340 | -93.67426 | 21481 ft | 337 kts | 86° |
| 2026-04-20 05:58 | 29.68311 | -93.64731 | 21485 ft | 337 kts | 86° |
| 2026-04-20 05:59 | 29.68281 | -93.62014 | 21490 ft | 337 kts | 86° |
| 2026-04-20 05:59 | 29.68251 | -93.59339 | 21494 ft | 337 kts | 86° |
| 2026-04-20 05:59 | 29.68221 | -93.56630 | 21493 ft | 338 kts | 86° |
| 2026-04-20 05:59 | 29.68190 | -93.53954 | 21491 ft | 338 kts | 86° |
| 2026-04-20 06:00 | 29.68158 | -93.51244 | 21488 ft | 338 kts | 86° |
| 2026-04-20 06:00 | 29.68126 | -93.48543 | 21485 ft | 338 kts | 86° |
| 2026-04-20 06:00 | 29.68093 | -93.45832 | 21482 ft | 339 kts | 86° |
| 2026-04-20 06:00 | 29.68060 | -93.43125 | 21479 ft | 339 kts | 86° |
| 2026-04-20 06:01 | 29.68026 | -93.40411 | 21477 ft | 339 kts | 86° |
| 2026-04-20 06:01 | 29.67992 | -93.37711 | 21474 ft | 339 kts | 86° |
| 2026-04-20 06:01 | 29.67957 | -93.35028 | 21471 ft | 339 kts | 86° |
| 2026-04-20 06:01 | 29.67921 | -93.32296 | 21462 ft | 339 kts | 86° |
| 2026-04-20 06:02 | 29.67885 | -93.29613 | 21461 ft | 339 kts | 86° |
| 2026-04-20 06:02 | 29.67849 | -93.26906 | 21461 ft | 338 kts | 86° |
| 2026-04-20 06:02 | 29.67811 | -93.24197 | 21462 ft | 338 kts | 86° |
| 2026-04-20 06:02 | 29.67774 | -93.21519 | 21462 ft | 338 kts | 86° |
| 2026-04-20 06:03 | 29.67736 | -93.18814 | 21462 ft | 338 kts | 86° |
| 2026-04-20 06:03 | 29.67697 | -93.16110 | 21462 ft | 338 kts | 86° |
| 2026-04-20 06:03 | 29.67658 | -93.13434 | 21463 ft | 338 kts | 86° |
| 2026-04-20 06:03 | 29.67618 | -93.10716 | 21463 ft | 338 kts | 86° |
| 2026-04-20 06:04 | 29.67578 | -93.08046 | 21463 ft | 337 kts | 87° |
| 2026-04-20 06:04 | 29.67537 | -93.05344 | 21464 ft | 337 kts | 87° |
| 2026-04-20 06:04 | 29.67496 | -93.02646 | 21464 ft | 337 kts | 87° |
| 2026-04-20 06:04 | 29.67454 | -92.99944 | 21464 ft | 337 kts | 87° |
| 2026-04-20 06:05 | 29.67412 | -92.97279 | 21465 ft | 337 kts | 87° |
| 2026-04-20 06:05 | 29.67368 | -92.94558 | 21465 ft | 337 kts | 88° |
| 2026-04-20 06:05 | 29.67326 | -92.91885 | 21465 ft | 337 kts | 88° |
| 2026-04-20 06:05 | 29.67281 | -92.89181 | 21466 ft | 337 kts | 88° |
| 2026-04-20 06:06 | 29.67237 | -92.86520 | 21466 ft | 337 kts | 88° |
| 2026-04-20 06:06 | 29.67192 | -92.83835 | 21466 ft | 337 kts | 88° |
| 2026-04-20 06:06 | 29.67146 | -92.81145 | 21467 ft | 337 kts | 88° |
| 2026-04-20 06:06 | 29.67099 | -92.78449 | 21468 ft | 337 kts | 88° |
| 2026-04-20 06:07 | 29.67053 | -92.75754 | 21468 ft | 337 kts | 88° |
| 2026-04-20 06:07 | 29.67005 | -92.73067 | 21469 ft | 337 kts | 88° |
| 2026-04-20 06:07 | 29.66957 | -92.70380 | 21470 ft | 337 kts | 88° |
| 2026-04-20 06:07 | 29.66910 | -92.67715 | 21470 ft | 337 kts | 88° |
| 2026-04-20 06:08 | 29.66860 | -92.65002 | 21471 ft | 337 kts | 88° |
| 2026-04-20 06:08 | 29.66811 | -92.62315 | 21471 ft | 337 kts | 88° |
| 2026-04-20 06:08 | 29.66761 | -92.59630 | 21471 ft | 337 kts | 88° |
| 2026-04-20 06:08 | 29.66710 | -92.56937 | 21469 ft | 337 kts | 88° |
| 2026-04-20 06:09 | 29.66659 | -92.54239 | 21468 ft | 337 kts | 88° |
| 2026-04-20 06:09 | 29.66608 | -92.51582 | 21467 ft | 337 kts | 88° |
| 2026-04-20 06:09 | 29.66556 | -92.48891 | 21466 ft | 337 kts | 88° |
| 2026-04-20 06:09 | 29.66503 | -92.46193 | 21464 ft | 337 kts | 88° |
| 2026-04-20 06:10 | 29.66449 | -92.43495 | 21464 ft | 337 kts | 88° |
| 2026-04-20 06:10 | 29.66396 | -92.40810 | 21462 ft | 337 kts | 88° |
| 2026-04-20 06:10 | 29.66367 | -92.38107 | 21455 ft | 336 kts | 82° |
| 2026-04-20 06:10 | 29.66671 | -92.35462 | 21462 ft | 333 kts | 76° |
| 2026-04-20 06:11 | 29.67076 | -92.32847 | 21461 ft | 332 kts | 75° |
| 2026-04-20 06:11 | 29.67498 | -92.30239 | 21501 ft | 331 kts | 75° |
| 2026-04-20 06:11 | 29.67921 | -92.27650 | 21507 ft | 330 kts | 75° |
| 2026-04-20 06:11 | 29.68346 | -92.25055 | 21508 ft | 330 kts | 75° |
| 2026-04-20 06:12 | 29.68766 | -92.22486 | 21508 ft | 330 kts | 75° |
| 2026-04-20 06:12 | 29.69188 | -92.19899 | 21508 ft | 330 kts | 75° |
| 2026-04-20 06:12 | 29.69611 | -92.17303 | 21509 ft | 331 kts | 75° |
| 2026-04-20 06:12 | 29.70035 | -92.14700 | 21509 ft | 331 kts | 75° |
| 2026-04-20 06:13 | 29.70457 | -92.12106 | 21509 ft | 331 kts | 75° |
| 2026-04-20 06:13 | 29.70879 | -92.09508 | 21509 ft | 331 kts | 75° |
| 2026-04-20 06:13 | 29.71303 | -92.06898 | 21509 ft | 331 kts | 75° |
| 2026-04-20 06:13 | 29.71719 | -92.04330 | 21510 ft | 331 kts | 75° |
| 2026-04-20 06:14 | 29.72139 | -92.01733 | 21510 ft | 331 kts | 75° |
| 2026-04-20 06:14 | 29.72546 | -91.99116 | 21505 ft | 333 kts | 79° |
| 2026-04-20 06:14 | 29.72674 | -91.96439 | 21510 ft | 335 kts | 85° |
| 2026-04-20 06:14 | 29.72724 | -91.93778 | 21511 ft | 335 kts | 85° |
| 2026-04-20 06:15 | 29.72770 | -91.91096 | 21511 ft | 335 kts | 85° |
| 2026-04-20 06:15 | 29.72815 | -91.88419 | 21512 ft | 335 kts | 85° |
| 2026-04-20 06:15 | 29.72859 | -91.85738 | 21513 ft | 335 kts | 85° |
| 2026-04-20 06:15 | 29.72903 | -91.83092 | 21514 ft | 335 kts | 85° |
| 2026-04-20 06:16 | 29.72946 | -91.80411 | 21515 ft | 335 kts | 85° |
| 2026-04-20 06:16 | 29.72989 | -91.77737 | 21517 ft | 335 kts | 85° |
| 2026-04-20 06:16 | 29.73031 | -91.75066 | 21518 ft | 335 kts | 85° |
| 2026-04-20 06:16 | 29.73073 | -91.72385 | 21519 ft | 335 kts | 85° |
| 2026-04-20 06:17 | 29.73115 | -91.69693 | 21521 ft | 335 kts | 85° |
| 2026-04-20 06:17 | 29.73155 | -91.67008 | 21522 ft | 336 kts | 85° |
| 2026-04-20 06:17 | 29.73196 | -91.64320 | 21522 ft | 336 kts | 85° |
| 2026-04-20 06:17 | 29.73235 | -91.61657 | 21522 ft | 336 kts | 85° |
| 2026-04-20 06:18 | 29.73275 | -91.58972 | 21523 ft | 336 kts | 85° |
| 2026-04-20 06:18 | 29.73313 | -91.56298 | 21523 ft | 336 kts | 85° |
| 2026-04-20 06:18 | 29.73352 | -91.53597 | 21523 ft | 336 kts | 85° |
| 2026-04-20 06:18 | 29.73389 | -91.50942 | 21523 ft | 336 kts | 85° |
| 2026-04-20 06:19 | 29.73426 | -91.48242 | 21524 ft | 336 kts | 85° |
| 2026-04-20 06:19 | 29.73463 | -91.45568 | 21524 ft | 336 kts | 85° |
| 2026-04-20 06:19 | 29.73499 | -91.42870 | 21524 ft | 336 kts | 85° |
| 2026-04-20 06:19 | 29.73534 | -91.40182 | 21524 ft | 337 kts | 85° |
| 2026-04-20 06:20 | 29.73569 | -91.37489 | 21524 ft | 337 kts | 85° |
| 2026-04-20 06:20 | 29.73606 | -91.34798 | 21524 ft | 337 kts | 86° |
| 2026-04-20 06:20 | 29.73639 | -91.32129 | 21517 ft | 337 kts | 86° |
| 2026-04-20 06:20 | 29.73672 | -91.29409 | 21516 ft | 336 kts | 86° |
| 2026-04-20 06:21 | 29.73703 | -91.26741 | 21516 ft | 332 kts | 86° |
| 2026-04-20 06:21 | 29.73732 | -91.24146 | 21514 ft | 322 kts | 86° |
| 2026-04-20 06:21 | 29.73762 | -91.21595 | 21444 ft | 317 kts | 86° |
| 2026-04-20 06:21 | 29.73793 | -91.19056 | 21258 ft | 317 kts | 86° |
| 2026-04-20 06:22 | 29.73824 | -91.16510 | 20952 ft | 321 kts | 86° |
| 2026-04-20 06:22 | 29.73854 | -91.13948 | 20582 ft | 326 kts | 86° |
| 2026-04-20 06:22 | 29.73883 | -91.11312 | 20204 ft | 329 kts | 86° |
| 2026-04-20 06:22 | 29.73911 | -91.08703 | 19832 ft | 328 kts | 87° |
| 2026-04-20 06:23 | 29.73939 | -91.06091 | 19452 ft | 324 kts | 87° |
| 2026-04-20 06:23 | 29.73965 | -91.03523 | 19074 ft | 319 kts | 87° |
| 2026-04-20 06:23 | 29.73991 | -91.00991 | 18697 ft | 315 kts | 87° |
| 2026-04-20 06:23 | 29.74016 | -90.98519 | 18324 ft | 311 kts | 88° |
| 2026-04-20 06:24 | 29.74040 | -90.96054 | 17948 ft | 307 kts | 88° |
| 2026-04-20 06:24 | 29.74064 | -90.93610 | 17572 ft | 304 kts | 88° |
| 2026-04-20 06:24 | 29.74087 | -90.91196 | 17197 ft | 301 kts | 88° |
| 2026-04-20 06:24 | 29.74109 | -90.88814 | 16795 ft | 296 kts | 88° |
| 2026-04-20 06:25 | 29.74131 | -90.86457 | 16346 ft | 295 kts | 88° |
| 2026-04-20 06:25 | 29.74152 | -90.84096 | 15893 ft | 293 kts | 88° |
| 2026-04-20 06:25 | 29.74173 | -90.81787 | 15448 ft | 291 kts | 88° |
| 2026-04-20 06:25 | 29.74193 | -90.79480 | 15001 ft | 289 kts | 88° |
| 2026-04-20 06:26 | 29.74212 | -90.77180 | 14521 ft | 287 kts | 88° |
| 2026-04-20 06:26 | 29.74231 | -90.74898 | 14022 ft | 286 kts | 88° |
| 2026-04-20 06:26 | 29.74249 | -90.72620 | 13523 ft | 284 kts | 88° |
| 2026-04-20 06:26 | 29.74266 | -90.70351 | 13023 ft | 282 kts | 88° |
| 2026-04-20 06:27 | 29.74283 | -90.68108 | 12525 ft | 281 kts | 88° |
| 2026-04-20 06:27 | 29.74300 | -90.65904 | 12032 ft | 276 kts | 88° |
| 2026-04-20 06:27 | 29.74316 | -90.63715 | 11496 ft | 272 kts | 88° |
| 2026-04-20 06:27 | 29.74331 | -90.61556 | 10854 ft | 271 kts | 88° |
| 2026-04-20 06:28 | 29.74348 | -90.59391 | 10203 ft | 270 kts | 88° |
| 2026-04-20 06:28 | 29.74362 | -90.57263 | 9561 ft | 269 kts | 87° |
| 2026-04-20 06:28 | 29.74376 | -90.55122 | 8909 ft | 266 kts | 87° |
| 2026-04-20 06:28 | 29.74390 | -90.53020 | 8259 ft | 261 kts | 87° |
| 2026-04-20 06:29 | 29.74404 | -90.50957 | 7609 ft | 257 kts | 86° |
| 2026-04-20 06:29 | 29.74415 | -90.48927 | 6958 ft | 253 kts | 87° |
| 2026-04-20 06:29 | 29.74613 | -90.46980 | 6314 ft | 247 kts | 75° |
| 2026-04-20 06:29 | 29.75017 | -90.45077 | 5661 ft | 243 kts | 72° |
| 2026-04-20 06:30 | 29.75437 | -90.43217 | 5008 ft | 239 kts | 72° |
| 2026-04-20 06:30 | 29.75845 | -90.41411 | 4365 ft | 235 kts | 72° |
| 2026-04-20 06:30 | 29.76251 | -90.39606 | 3712 ft | 232 kts | 72° |
| 2026-04-20 06:30 | 29.76649 | -90.37834 | 3062 ft | 229 kts | 72° |
| 2026-04-20 06:31 | 29.77044 | -90.36076 | 2410 ft | 227 kts | 73° |
| 2026-04-20 06:31 | 29.77432 | -90.34348 | 2036 ft | 212 kts | 73° |
| 2026-04-20 06:31 | 29.77898 | -90.32840 | 1994 ft | 190 kts | 52° |
| 2026-04-20 06:31 | 29.78761 | -90.31812 | 1999 ft | 173 kts | 36° |
| 2026-04-20 06:32 | 29.79785 | -90.31169 | 2000 ft | 161 kts | 21° |
| 2026-04-20 06:32 | 29.80815 | -90.30762 | 2000 ft | 153 kts | 17° |
| 2026-04-20 06:32 | 29.81812 | -90.30428 | 2002 ft | 150 kts | 15° |
| 2026-04-20 06:32 | 29.82822 | -90.30105 | 2003 ft | 149 kts | 15° |
| 2026-04-20 06:33 | 29.83806 | -90.29793 | 2004 ft | 148 kts | 15° |
| 2026-04-20 06:33 | 29.84759 | -90.29490 | 2026 ft | 134 kts | 15° |
| 2026-04-20 06:33 | 29.85626 | -90.29215 | 2003 ft | 126 kts | 15° |
| 2026-04-20 06:33 | 29.86457 | -90.28951 | 2003 ft | 122 kts | 15° |
| 2026-04-20 06:34 | 29.87271 | -90.28692 | 2004 ft | 120 kts | 15° |
| 2026-04-20 06:34 | 29.88072 | -90.28437 | 2005 ft | 119 kts | 15° |
| 2026-04-20 06:34 | 29.89743 | -90.27907 | 1779 ft | 129 kts | 15° |
| 2026-04-20 06:35 | 29.90601 | -90.27634 | 1618 ft | 130 kts | 16° |
| 2026-04-20 06:35 | 29.91471 | -90.27357 | 1449 ft | 130 kts | 16° |
| 2026-04-20 06:35 | 29.92347 | -90.27080 | 1275 ft | 129 kts | 16° |
| 2026-04-20 06:35 | 29.93205 | -90.26807 | 1104 ft | 129 kts | 16° |
| 2026-04-20 06:36 | 29.94075 | -90.26531 | 930 ft | 129 kts | 16° |
| 2026-04-20 06:36 | 29.94891 | -90.26273 | 846 ft | 106 kts | 17° |
| 2026-04-20 06:36 | 29.95552 | -90.26062 | 656 ft | 94 kts | 17° |
| 2026-04-20 06:36 | 29.96176 | -90.25864 | 516 ft | 92 kts | 17° |
| 2026-04-20 06:37 | 29.96800 | -90.25665 | 387 ft | 95 kts | 17° |
| 2026-04-20 06:37 | 29.97449 | -90.25465 | 277 ft | 96 kts | 16° |
| 2026-04-20 06:37 | 29.98083 | -90.25258 | 175 ft | 93 kts | 19° |
| 2026-04-20 06:37 | 29.98699 | -90.25061 | 30 ft | 87 kts | 17° |
| 2026-04-20 06:38 | 29.99248 | -90.24887 | 10 ft | 78 kts | 17° |
| 2026-04-20 06:38 | 29.99662 | -90.24751 | 8 ft | 29 kts | 16° |
| 2026-04-20 06:38 | 29.99783 | -90.24769 | 8 ft | 15 kts | 314° |
| 2026-04-20 06:38 | 29.99776 | -90.24859 | 8 ft | 11 kts | 207° |
| 2026-04-20 06:39 | 29.99702 | -90.24886 | 8 ft | 10 kts | 194° |
| 2026-04-20 06:39 | 29.99629 | -90.24911 | 8 ft | 11 kts | 197° |
| 2026-04-20 06:39 | 29.99568 | -90.24962 | 8 ft | 11 kts | 234° |
| 2026-04-20 06:39 | 29.99526 | -90.25046 | 8 ft | 12 kts | 243° |
| 2026-04-20 06:40 | 29.99482 | -90.25137 | 8 ft | 13 kts | 232° |
| 2026-04-20 06:40 | 29.99426 | -90.25231 | 8 ft | 14 kts | 213° |
| 2026-04-20 06:40 | 29.99322 | -90.25230 | 8 ft | 15 kts | 182° |
| 2026-04-20 06:40 | 29.99230 | -90.25295 | 8 ft | 16 kts | 245° |
| 2026-04-20 06:41 | 29.99220 | -90.25433 | 8 ft | 18 kts | 276° |
| 2026-04-20 06:41 | 29.99242 | -90.25580 | 8 ft | 19 kts | 276° |
| 2026-04-20 06:41 | 29.99258 | -90.25738 | 8 ft | 20 kts | 284° |
| 2026-04-20 06:41 | 29.99344 | -90.25841 | 8 ft | 14 kts | 326° |
| 2026-04-20 06:42 | 29.99387 | -90.25923 | 8 ft | 12 kts | 287° |
| 2026-04-20 06:42 | 29.99410 | -90.26024 | 8 ft | 13 kts | 292° |
| 2026-04-20 06:42 | 29.99440 | -90.26133 | 8 ft | 15 kts | 274° |
| 2026-04-20 06:42 | 29.99443 | -90.26260 | 8 ft | 16 kts | 277° |
| 2026-04-20 06:43 | 29.99494 | -90.26369 | 8 ft | 17 kts | 340° |
| 2026-04-20 06:43 | 29.99610 | -90.26351 | 8 ft | 17 kts | 20° |
| 2026-04-20 06:43 | 29.99644 | -90.26238 | 8 ft | 15 kts | 110° |
| 2026-04-20 06:43 | 29.99649 | -90.26182 | 8 ft | 6 kts | 25° |
| 2026-04-20 06:44 | 29.99665 | -90.26177 | 8 ft | 0 kts | 12° |